createdAt,value
2022-12-16T00:00:02.275Z,39.67
2022-12-16T00:02:33.557Z,42.80
2022-12-16T00:05:00.339Z,44.60
2022-12-16T00:07:27.214Z,47.53
2022-12-16T00:09:54.002Z,36.78
2022-12-16T00:12:21.421Z,42.95
2022-12-16T00:14:49.015Z,36.83
2022-12-16T00:17:15.797Z,43.58
2022-12-16T00:19:42.529Z,42.38
2022-12-16T00:22:09.518Z,43.67
2022-12-16T00:24:36.436Z,46.90
2022-12-16T00:27:03.872Z,39.75
2022-12-16T00:29:30.572Z,40.95
2022-12-16T00:31:57.451Z,42.92
2022-12-16T00:34:24.260Z,42.05
2022-12-16T00:36:51.013Z,41.78
2022-12-16T00:39:17.801Z,38.05
2022-12-16T00:41:44.606Z,36.42
2022-12-16T00:44:11.485Z,38.35
2022-12-16T00:46:38.283Z,40.03
2022-12-16T00:49:05.109Z,35.88
2022-12-16T00:51:31.873Z,38.83
2022-12-16T00:53:58.731Z,37.03
2022-12-16T00:56:25.539Z,42.90
2022-12-16T00:58:52.412Z,37.38
2022-12-16T01:01:19.518Z,35.60
2022-12-16T01:03:46.690Z,32.53
2022-12-16T01:06:17.037Z,36.55
2022-12-16T01:08:48.941Z,35.63
2022-12-16T01:11:18.299Z,38.83
2022-12-16T01:13:46.393Z,38.13
2022-12-16T01:16:13.210Z,37.88
2022-12-16T01:18:39.930Z,35.20
2022-12-16T01:21:08.532Z,35.03
2022-12-16T01:23:36.183Z,37.30
2022-12-16T01:26:03.771Z,40.33
2022-12-16T01:28:31.163Z,41.30
2022-12-16T01:31:01.809Z,39.67
2022-12-16T01:33:33.823Z,43.50
2022-12-16T01:36:02.988Z,38.17
2022-12-16T01:38:30.282Z,35.42
2022-12-16T01:40:57.562Z,39.95
2022-12-16T01:43:30.510Z,40.95
2022-12-16T01:46:23.332Z,42.38
2022-12-16T01:49:00.898Z,40.22
2022-12-16T01:51:36.298Z,37.75
2022-12-16T01:54:12.332Z,39.83
2022-12-16T01:56:45.698Z,42.83
2022-12-16T01:59:14.752Z,34.17
2022-12-16T02:01:41.954Z,42.60
2022-12-16T02:04:09.020Z,36.10
2022-12-16T02:06:35.752Z,37.17
2022-12-16T02:09:07.850Z,38.40
2022-12-16T02:12:02.979Z,38.20
2022-12-16T02:15:00.487Z,37.88
2022-12-16T02:17:52.723Z,36.33
2022-12-16T02:20:58.113Z,38.35
2022-12-16T02:23:31.019Z,42.33
2022-12-16T02:26:16.630Z,46.83
2022-12-16T02:29:21.259Z,41.47
2022-12-16T02:32:24.967Z,46.72
2022-12-16T02:35:18.519Z,46.08
2022-12-16T02:38:06.172Z,51.08
2022-12-16T02:40:55.601Z,41.75
2022-12-16T02:43:39.823Z,40.13
2022-12-16T02:46:08.251Z,43.00
2022-12-16T02:48:35.345Z,44.35
2022-12-16T02:51:02.248Z,48.88
2022-12-16T02:53:31.484Z,45.38
2022-12-16T02:56:18.624Z,51.97
2022-12-16T02:58:53.064Z,48.40
2022-12-16T03:01:46.276Z,52.55
2022-12-16T03:04:16.216Z,64.53
2022-12-16T03:06:47.900Z,57.05
2022-12-16T03:09:18.973Z,64.28
2022-12-16T03:11:48.247Z,66.18
2022-12-16T03:14:18.876Z,69.47
2022-12-16T03:16:47.063Z,71.30
2022-12-16T03:19:14.512Z,78.13
2022-12-16T03:22:09.204Z,66.35
2022-12-16T03:24:36.789Z,72.10
2022-12-16T03:27:20.807Z,61.50
2022-12-16T03:29:58.130Z,67.38
2022-12-16T03:32:31.165Z,66.03
2022-12-16T03:35:10.686Z,61.25
2022-12-16T03:37:38.358Z,57.83
2022-12-16T03:40:08.519Z,54.30
2022-12-16T03:42:36.683Z,52.03
2022-12-16T03:45:05.147Z,51.83
2022-12-16T03:47:32.190Z,45.47
2022-12-16T03:49:58.936Z,38.10
2022-12-16T03:52:25.683Z,42.67
2022-12-16T03:54:52.411Z,33.45
2022-12-16T03:57:19.367Z,35.40
2022-12-16T03:59:46.201Z,30.48
2022-12-16T04:02:13.014Z,28.35
2022-12-16T04:04:39.911Z,30.20
2022-12-16T04:07:21.740Z,26.98
2022-12-16T04:09:49.906Z,26.27
2022-12-16T04:12:35.488Z,26.08
2022-12-16T04:15:38.039Z,23.48
2022-12-16T04:18:24.422Z,27.45
2022-12-16T04:21:14.159Z,23.83
2022-12-16T04:24:11.658Z,24.90
2022-12-16T04:26:56.746Z,23.33
2022-12-16T04:29:24.203Z,23.48
2022-12-16T04:31:52.193Z,23.80
2022-12-16T04:34:29.521Z,25.00
2022-12-16T04:37:20.049Z,23.90
2022-12-16T04:40:06.154Z,24.13
2022-12-16T04:42:51.911Z,25.33
2022-12-16T04:45:37.176Z,26.02
2022-12-16T04:48:23.012Z,25.33
2022-12-16T04:51:08.516Z,27.23
2022-12-16T04:53:53.988Z,28.85
2022-12-16T04:56:39.251Z,24.00
2022-12-16T04:59:24.716Z,32.80
2022-12-16T05:02:10.148Z,26.92
2022-12-16T05:04:55.382Z,28.73
2022-12-16T05:07:41.849Z,26.40
2022-12-16T05:10:27.833Z,31.65
2022-12-16T05:13:13.782Z,28.17
2022-12-16T05:15:59.600Z,27.88
2022-12-16T05:18:44.805Z,28.00
2022-12-16T05:21:30.003Z,30.42
2022-12-16T05:24:15.029Z,30.20
2022-12-16T05:27:00.089Z,34.33
2022-12-16T05:29:45.464Z,32.08
2022-12-16T05:32:31.125Z,35.33
2022-12-16T05:35:16.875Z,38.80
2022-12-16T05:38:02.132Z,35.53
2022-12-16T05:40:47.358Z,30.00
2022-12-16T05:43:33.023Z,30.73
2022-12-16T05:46:18.615Z,29.90
2022-12-16T05:49:04.320Z,27.77
2022-12-16T05:51:49.411Z,25.38
2022-12-16T05:54:34.610Z,28.33
2022-12-16T05:57:19.782Z,23.85
2022-12-16T06:00:05.009Z,26.23
2022-12-16T06:02:57.705Z,23.92
2022-12-16T06:05:42.868Z,24.92
2022-12-16T06:08:28.295Z,26.05
2022-12-16T06:11:13.543Z,23.10
2022-12-16T06:13:58.763Z,29.35
2022-12-16T06:16:44.195Z,26.92
2022-12-16T06:19:30.033Z,26.67
2022-12-16T06:22:15.491Z,29.83
2022-12-16T06:25:01.155Z,25.65
2022-12-16T06:27:46.727Z,30.05
2022-12-16T06:30:32.424Z,28.35
2022-12-16T06:33:17.624Z,31.10
2022-12-16T06:36:03.009Z,30.20
2022-12-16T06:38:48.200Z,31.33
2022-12-16T06:41:33.400Z,29.48
2022-12-16T06:44:19.047Z,30.70
2022-12-16T06:47:04.218Z,31.73
2022-12-16T06:49:49.362Z,31.05
2022-12-16T06:52:34.753Z,30.33
2022-12-16T06:55:19.950Z,34.03
2022-12-16T06:58:09.754Z,29.17
2022-12-16T07:00:55.290Z,29.20
2022-12-16T07:03:40.963Z,28.50
2022-12-16T07:06:26.959Z,32.20
2022-12-16T07:09:12.780Z,36.03
2022-12-16T07:12:01.103Z,34.53
2022-12-16T07:14:46.389Z,33.92
2022-12-16T07:17:31.592Z,33.45
2022-12-16T07:20:19.455Z,33.03
2022-12-16T07:23:12.154Z,30.30
2022-12-16T07:26:03.149Z,28.20
2022-12-16T07:28:48.288Z,35.72
2022-12-16T07:31:33.944Z,38.70
2022-12-16T07:34:19.212Z,45.28
2022-12-16T07:37:04.560Z,61.17
2022-12-16T07:39:54.560Z,56.20
2022-12-16T07:42:40.966Z,56.58
2022-12-16T07:45:26.940Z,57.13
2022-12-16T07:48:12.304Z,56.35
2022-12-16T07:50:57.795Z,50.65
2022-12-16T07:53:43.816Z,44.65
2022-12-16T07:56:29.618Z,50.00
2022-12-16T07:59:14.926Z,52.90
2022-12-16T08:02:00.502Z,49.22
2022-12-16T08:04:46.572Z,46.88
2022-12-16T08:07:32.007Z,48.90
2022-12-16T08:10:17.909Z,40.72
2022-12-16T08:13:05.843Z,37.05
2022-12-16T08:15:54.280Z,31.95
2022-12-16T08:18:39.568Z,30.63
2022-12-16T08:21:26.471Z,26.90
2022-12-16T08:24:11.800Z,22.42
2022-12-16T08:26:57.212Z,24.25
2022-12-16T08:29:44.730Z,18.42
2022-12-16T08:32:31.346Z,18.55
2022-12-16T08:35:17.288Z,19.02
2022-12-16T08:38:02.759Z,15.65
2022-12-16T08:40:48.322Z,17.17
2022-12-16T08:43:34.090Z,17.38
2022-12-16T08:46:19.612Z,16.30
2022-12-16T08:49:05.201Z,15.57
2022-12-16T08:51:50.519Z,21.05
2022-12-16T08:54:36.332Z,16.58
2022-12-16T08:57:22.213Z,19.00
2022-12-16T09:00:07.765Z,19.67
2022-12-16T09:02:53.331Z,18.35
2022-12-16T09:05:41.108Z,17.77
2022-12-16T09:08:26.464Z,14.10
2022-12-16T09:11:11.898Z,13.95
2022-12-16T09:13:57.182Z,16.40
2022-12-16T09:16:42.954Z,13.15
2022-12-16T09:19:29.855Z,10.93
2022-12-16T09:22:15.311Z,11.43
2022-12-16T09:25:00.962Z,10.60
2022-12-16T09:27:46.313Z,10.80
2022-12-16T09:30:32.056Z,10.18
2022-12-16T09:33:17.656Z,9.05
2022-12-16T09:36:02.984Z,8.95
2022-12-16T09:38:48.624Z,8.38
2022-12-16T09:41:50.988Z,7.95
2022-12-16T09:45:26.021Z,8.20
2022-12-16T09:48:25.536Z,10.60
2022-12-16T09:51:14.657Z,9.15
2022-12-16T09:54:02.043Z,7.10
2022-12-16T09:56:55.150Z,8.30
2022-12-16T09:59:46.089Z,9.85
2022-12-16T10:02:37.439Z,9.63
2022-12-16T10:05:28.694Z,10.57
2022-12-16T10:08:39.185Z,10.13
2022-12-16T10:11:34.810Z,10.13
2022-12-16T10:14:35.837Z,10.32
2022-12-16T10:17:23.742Z,14.18
2022-12-16T10:20:09.977Z,14.20
2022-12-16T10:23:04.925Z,10.05
2022-12-16T10:26:12.620Z,10.73
2022-12-16T10:29:01.386Z,9.60
2022-12-16T10:31:47.274Z,11.32
2022-12-16T10:34:44.356Z,9.93
2022-12-16T10:37:44.230Z,10.45
2022-12-16T10:40:37.519Z,12.40
2022-12-16T10:46:12.804Z,15.05
2022-12-16T10:48:58.295Z,12.57
2022-12-16T10:51:47.332Z,16.10
2022-12-16T10:54:50.842Z,14.77
2022-12-16T10:58:06.564Z,17.63
2022-12-16T11:01:39.423Z,19.77
2022-12-16T11:04:55.977Z,18.85
2022-12-16T11:07:55.389Z,19.45
2022-12-16T11:10:43.524Z,19.17
2022-12-16T11:13:37.464Z,21.35
2022-12-16T11:16:34.327Z,18.25
2022-12-16T11:19:20.395Z,20.05
2022-12-16T11:22:08.877Z,18.52
2022-12-16T11:24:54.443Z,19.48
2022-12-16T11:27:43.731Z,23.55
2022-12-16T11:30:38.711Z,17.77
2022-12-16T11:33:39.667Z,17.92
2022-12-16T11:36:30.184Z,17.88
2022-12-16T11:39:16.443Z,19.58
2022-12-16T11:42:06.191Z,19.40
2022-12-16T11:45:05.468Z,17.73
2022-12-16T11:48:04.503Z,20.17
2022-12-16T11:50:54.002Z,21.30
2022-12-16T11:53:46.944Z,20.80
2022-12-16T11:56:36.598Z,24.42
2022-12-16T11:59:29.801Z,23.60
2022-12-16T12:02:19.282Z,23.35
2022-12-16T12:05:06.982Z,26.48
2022-12-16T12:08:02.993Z,27.13
2022-12-16T12:10:53.047Z,28.05
2022-12-16T12:13:50.144Z,31.67
2022-12-16T12:16:45.182Z,37.00
2022-12-16T12:19:43.818Z,44.03
2022-12-16T12:22:47.526Z,42.60
2022-12-16T12:25:54.394Z,45.10
2022-12-16T12:28:48.944Z,44.00
2022-12-16T12:31:43.431Z,47.30
2022-12-16T12:34:39.109Z,43.22
2022-12-16T12:38:07.800Z,44.25
2022-12-16T12:42:01.622Z,46.80
2022-12-16T12:45:02.082Z,54.45
2022-12-16T12:47:49.983Z,50.55
2022-12-16T12:50:50.821Z,53.38
2022-12-16T12:54:04.086Z,57.05
2022-12-16T12:57:12.569Z,57.47
2022-12-16T13:00:18.744Z,55.40
2022-12-16T13:03:14.403Z,53.58
2022-12-16T13:06:01.030Z,59.90
2022-12-16T13:09:07.937Z,56.78
2022-12-16T13:11:54.321Z,60.03
2022-12-16T13:14:51.898Z,60.95
2022-12-16T13:17:43.490Z,63.42
2022-12-16T13:20:50.837Z,68.38
2022-12-16T13:24:03.668Z,69.22
2022-12-16T13:26:51.936Z,68.53
2022-12-16T13:29:44.561Z,74.85
2022-12-16T13:32:41.057Z,82.05
2022-12-16T13:35:29.565Z,81.63
2022-12-16T13:38:17.854Z,90.88
2022-12-16T13:41:45.978Z,96.30
2022-12-16T13:44:52.136Z,98.38
2022-12-16T13:47:52.599Z,102.22
2022-12-16T13:51:00.013Z,98.55
2022-12-16T13:53:47.813Z,100.35
2022-12-16T13:56:36.786Z,103.15
2022-12-16T13:59:32.529Z,108.25
2022-12-16T14:02:33.247Z,98.00
2022-12-16T14:05:19.131Z,108.90
2022-12-16T14:08:04.722Z,101.40
2022-12-16T14:10:59.890Z,106.35
2022-12-16T14:13:57.466Z,99.90
2022-12-16T14:17:16.533Z,104.88
2022-12-16T14:20:25.218Z,92.88
2022-12-16T14:23:47.247Z,89.47
2022-12-16T14:26:23.494Z,96.30
2022-12-16T14:29:09.142Z,92.88
2022-12-16T14:31:59.914Z,96.63
2022-12-16T14:34:55.069Z,100.35
2022-12-16T14:37:47.751Z,106.95
2022-12-16T14:40:47.364Z,102.57
2022-12-16T14:43:42.616Z,101.95
2022-12-16T14:46:53.958Z,97.78
2022-12-16T14:49:43.459Z,103.35
2022-12-16T14:52:43.672Z,98.53
2022-12-16T14:55:50.522Z,97.78
2022-12-16T14:58:38.411Z,101.68
2022-12-16T15:01:34.947Z,102.72
2022-12-16T15:04:24.215Z,103.07
2022-12-16T15:07:12.438Z,96.57
2022-12-16T15:10:01.421Z,103.13
2022-12-16T15:12:50.722Z,104.40
2022-12-16T15:16:03.130Z,88.15
2022-12-16T15:19:01.602Z,91.50
2022-12-16T15:21:47.133Z,91.85
2022-12-16T15:24:38.023Z,87.47
2022-12-16T15:27:52.422Z,89.70
2022-12-16T15:33:38.550Z,83.53
2022-12-16T15:36:25.046Z,79.88
2022-12-16T15:39:12.461Z,89.90
2022-12-16T15:41:57.617Z,79.75
2022-12-16T15:44:46.978Z,84.47
2022-12-16T15:47:51.984Z,77.53
2022-12-16T15:50:44.341Z,81.57
2022-12-16T15:53:54.283Z,81.05
2022-12-16T15:56:42.872Z,86.45
2022-12-16T15:59:45.288Z,83.53
2022-12-16T16:02:42.212Z,86.50
2022-12-16T16:05:37.326Z,80.32
2022-12-16T16:08:23.280Z,91.68
2022-12-16T16:11:08.590Z,84.32
2022-12-16T16:13:54.610Z,86.40
2022-12-16T16:16:42.246Z,90.90
2022-12-16T16:19:40.781Z,81.93
2022-12-16T16:22:35.744Z,82.45
2022-12-16T16:25:21.721Z,81.93
2022-12-16T16:28:07.455Z,84.97
2022-12-16T16:30:52.956Z,84.03
2022-12-16T16:33:38.471Z,87.70
2022-12-16T16:36:33.951Z,79.43
2022-12-16T16:39:20.278Z,76.20
2022-12-16T16:42:05.777Z,78.68
2022-12-16T16:44:50.877Z,74.78
2022-12-16T16:47:36.689Z,77.30
2022-12-16T16:50:21.988Z,73.13
2022-12-16T16:53:07.173Z,82.03
2022-12-16T16:55:52.593Z,84.90
2022-12-16T16:58:50.595Z,81.47
2022-12-16T17:01:37.285Z,79.45
2022-12-16T17:04:23.324Z,74.80
2022-12-16T17:07:08.884Z,73.60
2022-12-16T17:09:54.121Z,72.68
2022-12-16T17:12:47.553Z,77.40
2022-12-16T17:15:36.179Z,70.75
2022-12-16T17:18:22.488Z,68.03
2022-12-16T17:21:07.885Z,71.50
2022-12-16T17:23:56.582Z,75.43
2022-12-16T17:26:42.502Z,71.85
2022-12-16T17:29:42.759Z,75.78
2022-12-16T17:32:28.926Z,76.88
2022-12-16T17:35:14.427Z,73.38
2022-12-16T17:37:59.980Z,71.47
2022-12-16T17:40:45.766Z,67.20
2022-12-16T17:43:31.299Z,74.38
2022-12-16T17:46:18.219Z,77.00
2022-12-16T17:49:09.584Z,75.30
2022-12-16T17:51:54.721Z,82.95
2022-12-16T17:54:42.568Z,76.20
2022-12-16T17:57:27.845Z,80.65
2022-12-16T18:00:12.957Z,84.43
2022-12-16T18:02:59.959Z,81.50
2022-12-16T18:05:45.999Z,81.07
2022-12-16T18:08:31.642Z,76.88
2022-12-16T18:11:17.331Z,76.43
2022-12-16T18:14:03.066Z,77.65
2022-12-16T18:16:49.811Z,75.05
2022-12-16T18:19:35.950Z,78.88
2022-12-16T18:22:21.292Z,78.30
2022-12-16T18:25:06.844Z,76.63
2022-12-16T18:27:54.676Z,74.30
2022-12-16T18:30:42.895Z,75.60
2022-12-16T18:33:28.551Z,63.90
2022-12-16T18:36:13.936Z,64.57
2022-12-16T18:38:59.555Z,71.97
2022-12-16T18:41:45.438Z,66.80
2022-12-16T18:44:32.608Z,64.45
2022-12-16T18:47:18.581Z,67.15
2022-12-16T18:50:04.161Z,62.63
2022-12-16T18:52:49.905Z,58.75
2022-12-16T18:55:35.259Z,55.67
2022-12-16T18:58:49.814Z,56.63
2022-12-16T19:01:28.759Z,62.50
2022-12-16T19:04:15.849Z,53.00
2022-12-16T19:07:02.412Z,58.28
2022-12-16T19:09:47.897Z,60.00
2022-12-16T19:12:33.119Z,59.63
2022-12-16T19:15:18.680Z,57.90
2022-12-16T19:18:03.893Z,60.05
2022-12-16T19:20:49.173Z,61.08
2022-12-16T19:23:34.673Z,64.25
2022-12-16T19:26:21.080Z,57.28
2022-12-16T19:29:14.384Z,64.80
2022-12-16T19:31:59.697Z,62.40
2022-12-16T19:34:45.032Z,66.97
2022-12-16T19:37:30.631Z,63.95
2022-12-16T19:40:16.194Z,64.78
2022-12-16T19:43:01.776Z,60.80
2022-12-16T19:45:47.444Z,68.63
2022-12-16T19:48:33.003Z,67.35
2022-12-16T19:51:20.473Z,62.00
2022-12-16T19:54:06.349Z,56.85
2022-12-16T19:56:52.766Z,60.00
2022-12-16T19:59:41.073Z,58.95
2022-12-16T20:02:28.964Z,62.50
2022-12-16T20:05:14.446Z,54.97
2022-12-16T20:07:59.687Z,61.88
2022-12-16T20:10:45.237Z,64.97
2022-12-16T20:13:32.235Z,57.90
2022-12-16T20:16:28.404Z,56.63
2022-12-16T20:19:18.929Z,62.83
2022-12-16T20:22:06.884Z,59.63
2022-12-16T20:24:56.312Z,60.05
2022-12-16T20:27:42.406Z,56.60
2022-12-16T20:30:28.854Z,57.72
2022-12-16T20:33:14.440Z,58.10
2022-12-16T20:35:59.589Z,58.55
2022-12-16T20:38:44.957Z,58.38
2022-12-16T20:41:30.133Z,53.78
2022-12-16T20:44:15.447Z,58.90
2022-12-16T20:47:00.829Z,58.28
2022-12-16T20:49:46.008Z,59.83
2022-12-16T20:52:31.381Z,67.50
2022-12-16T20:55:16.953Z,62.33
2022-12-16T20:58:02.354Z,64.72
2022-12-16T21:00:47.508Z,84.43
2022-12-16T21:03:32.854Z,64.10
2022-12-16T21:06:18.424Z,61.50
2022-12-16T21:09:04.012Z,63.13
2022-12-16T21:11:49.334Z,63.80
2022-12-16T21:14:34.797Z,64.30
2022-12-16T21:17:20.096Z,69.20
2022-12-16T21:20:06.262Z,71.15
2022-12-16T21:22:51.668Z,70.72
2022-12-16T21:25:38.504Z,71.93
2022-12-16T21:28:24.056Z,68.63
2022-12-16T21:31:09.374Z,63.50
2022-12-16T21:33:55.470Z,66.80
2022-12-16T21:36:41.063Z,73.47
2022-12-16T21:39:26.184Z,68.88
2022-12-16T21:42:11.480Z,74.28
2022-12-16T21:44:56.804Z,71.80
2022-12-16T21:47:42.402Z,69.65
2022-12-16T21:50:28.326Z,68.72
2022-12-16T21:53:13.647Z,70.10
2022-12-16T21:55:59.094Z,72.35
2022-12-16T21:58:44.412Z,70.45
2022-12-16T22:01:29.736Z,70.78
2022-12-16T22:04:15.197Z,68.72
2022-12-16T22:07:00.375Z,71.93
2022-12-16T22:09:45.748Z,71.90
2022-12-16T22:12:31.118Z,68.53
2022-12-16T22:15:16.411Z,61.20
2022-12-16T22:18:01.869Z,66.72
2022-12-16T22:20:47.312Z,71.28
2022-12-16T22:23:32.891Z,71.03
2022-12-16T22:26:19.524Z,67.00
2022-12-16T22:29:05.540Z,67.30
2022-12-16T22:31:50.768Z,67.95
2022-12-16T22:34:37.103Z,67.18
2022-12-16T22:37:22.796Z,72.32
2022-12-16T22:40:08.255Z,69.28
2022-12-16T22:42:53.300Z,66.18
2022-12-16T22:45:40.773Z,68.68
2022-12-16T22:48:26.083Z,71.38
2022-12-16T22:51:11.642Z,68.07
2022-12-16T22:53:57.134Z,65.72
2022-12-16T22:56:42.323Z,71.80
2022-12-16T22:59:27.746Z,62.00
2022-12-16T23:02:13.090Z,68.30
2022-12-16T23:05:00.423Z,64.20
2022-12-16T23:07:45.614Z,69.50
2022-12-16T23:10:31.063Z,66.55
2022-12-16T23:13:16.320Z,70.38
2022-12-16T23:16:01.774Z,62.50
2022-12-16T23:18:47.500Z,70.40
2022-12-16T23:21:37.044Z,67.47
2022-12-16T23:24:22.818Z,68.43
2022-12-16T23:27:08.066Z,66.80
2022-12-16T23:29:53.448Z,62.30
2022-12-16T23:32:42.846Z,65.93
2022-12-16T23:35:28.203Z,67.75
2022-12-16T23:38:24.127Z,68.55
2022-12-16T23:41:16.858Z,69.78
2022-12-16T23:44:03.254Z,67.72
2022-12-16T23:46:48.749Z,67.43
2022-12-16T23:49:34.029Z,74.22
2022-12-16T23:52:19.127Z,71.03
2022-12-16T23:55:04.369Z,68.65
2022-12-16T23:57:49.646Z,67.47
